Time;durP1;ratioP1;P1;durP2;ratioP2;P2;SDS_P1;SDS_P2;PMS_P1;PMS_P2;Temp;Humidity;BMP_temperature;BMP_pressure;BME280_temperature;BME280_humidity;BME280_pressure;Samples;Min_cycle;Max_cycle;Signal;HPM_P1;HPM_P2
2022/06/26 00:01:34;;;;;;;9.18;8.10;;;20.30;86.90;;;;;;5123647;27;20027;-45
2022/06/26 00:04:00;;;;;;;9.73;7.88;;;20.30;86.70;;;;;;5132974;27;20347;-45
2022/06/26 00:06:26;;;;;;;8.23;7.47;;;20.30;86.60;;;;;;5103855;28;20436;-46
2022/06/26 00:08:52;;;;;;;9.90;8.07;;;20.30;86.50;;;;;;5114328;27;20028;-47
2022/06/26 00:11:17;;;;;;;9.55;8.05;;;20.30;86.40;;;;;;5111714;28;20031;-45
2022/06/26 00:13:43;;;;;;;8.02;6.90;;;20.30;86.10;;;;;;5093553;28;20032;-46
2022/06/26 00:16:09;;;;;;;8.40;7.70;;;20.30;86.10;;;;;;5111729;27;20347;-45
2022/06/26 00:18:35;;;;;;;7.85;7.15;;;20.30;86.00;;;;;;5111925;28;20030;-46
2022/06/26 00:21:01;;;;;;;8.35;7.53;;;20.30;86.10;;;;;;5113615;27;20055;-45
2022/06/26 00:23:27;;;;;;;8.27;7.35;;;20.30;86.00;;;;;;5129327;27;20027;-45
2022/06/26 00:25:52;;;;;;;8.73;7.95;;;20.20;85.80;;;;;;5130543;27;20038;-46
2022/06/26 00:28:20;;;;;;;8.38;7.57;;;20.20;85.60;;;;;;5131979;27;20031;-45
2022/06/26 00:30:46;;;;;;;6.93;6.32;;;20.30;85.50;;;;;;5130701;27;20023;-45
2022/06/26 00:33:14;;;;;;;8.75;7.95;;;20.20;85.60;;;;;;5132227;27;20026;-46
2022/06/26 00:35:40;;;;;;;8.88;7.97;;;20.30;85.60;;;;;;5130494;27;20410;-45
2022/06/26 00:38:06;;;;;;;7.95;7.15;;;20.30;85.60;;;;;;5131460;27;20032;-48
2022/06/26 00:40:38;;;;;;;7.70;7.00;;;20.30;85.60;;;;;;5099866;27;20030;-45
2022/06/26 00:43:05;;;;;;;7.70;6.95;;;20.30;85.50;;;;;;5111791;27;20038;-47
2022/06/26 00:45:33;;;;;;;7.65;6.88;;;20.30;85.50;;;;;;5109965;28;20451;-47
2022/06/26 00:47:59;;;;;;;9.45;7.20;;;20.20;85.70;;;;;;5119948;27;20050;-46
2022/06/26 00:50:25;;;;;;;7.05;6.35;;;20.20;85.70;;;;;;5126708;27;20103;-45
2022/06/26 00:52:51;;;;;;;7.70;7.00;;;20.10;85.80;;;;;;5125362;27;20471;-45
2022/06/26 00:55:19;;;;;;;7.65;6.95;;;20.00;85.90;;;;;;5111933;27;20107;-46
2022/06/26 00:57:45;;;;;;;8.68;7.28;;;20.00;86.00;;;;;;5130577;27;20024;-46
2022/06/26 01:00:12;;;;;;;7.75;6.68;;;19.90;86.20;;;;;;5102224;28;20068;-45
2022/06/26 01:02:38;;;;;;;8.30;7.40;;;19.90;86.30;;;;;;5110767;28;20511;-46
2022/06/26 01:05:05;;;;;;;9.15;7.28;;;19.80;86.40;;;;;;5122020;27;20027;-45
2022/06/26 01:07:31;;;;;;;8.35;7.55;;;19.80;86.50;;;;;;5113278;27;20019;-45
2022/06/26 01:09:57;;;;;;;8.05;7.35;;;19.80;86.60;;;;;;5097170;28;20055;-45
2022/06/26 01:12:23;;;;;;;7.75;7.15;;;19.70;86.70;;;;;;5110582;28;20031;-45
2022/06/26 01:14:50;;;;;;;8.68;7.88;;;19.60;86.90;;;;;;5110543;27;20113;-46
2022/06/26 01:17:16;;;;;;;8.50;7.65;;;19.60;87.00;;;;;;5119307;27;20023;-44
2022/06/26 01:19:42;;;;;;;7.72;6.95;;;19.60;87.00;;;;;;5114552;27;20023;-45
2022/06/26 01:22:10;;;;;;;8.55;7.63;;;19.60;87.10;;;;;;5128233;27;20061;-45
2022/06/26 01:24:36;;;;;;;7.63;6.60;;;19.50;87.10;;;;;;5112410;27;20080;-47
2022/06/26 01:27:02;;;;;;;8.07;7.28;;;19.50;87.20;;;;;;5120968;27;20020;-45
2022/06/26 01:29:28;;;;;;;7.70;7.03;;;19.50;87.30;;;;;;5126210;27;20456;-45
2022/06/26 01:31:54;;;;;;;8.60;7.90;;;19.40;87.30;;;;;;5111677;27;20038;-45
2022/06/26 01:34:19;;;;;;;8.40;7.60;;;19.40;87.30;;;;;;5092480;28;20043;-45
2022/06/26 01:36:47;;;;;;;8.27;7.53;;;19.40;87.40;;;;;;5112055;27;20055;-45
2022/06/26 01:39:13;;;;;;;9.00;8.20;;;19.40;87.50;;;;;;5120279;27;20033;-46
2022/06/26 01:41:39;;;;;;;8.32;7.63;;;19.30;87.50;;;;;;5111903;27;20023;-45
2022/06/26 01:44:07;;;;;;;9.30;8.40;;;19.30;87.50;;;;;;5111328;27;20626;-45
2022/06/26 01:46:36;;;;;;;8.07;7.38;;;19.20;87.70;;;;;;5130293;27;20047;-45
2022/06/26 01:49:02;;;;;;;8.30;7.60;;;19.20;87.70;;;;;;5123459;27;20487;-44
2022/06/26 01:51:27;;;;;;;9.38;8.48;;;19.20;87.70;;;;;;5110068;28;20035;-46
2022/06/26 01:53:55;;;;;;;9.55;8.65;;;19.10;87.80;;;;;;5113463;27;20151;-44
2022/06/26 01:56:24;;;;;;;9.52;8.60;;;19.10;87.80;;;;;;5129704;27;20046;-47
2022/06/26 01:58:50;;;;;;;8.63;7.63;;;19.10;87.90;;;;;;5128418;27;20107;-45
2022/06/26 02:01:16;;;;;;;9.23;8.43;;;19.00;87.90;;;;;;5093430;28;20111;-44
2022/06/26 02:03:44;;;;;;;9.30;8.48;;;19.00;88.00;;;;;;5103323;28;20069;-45
2022/06/26 02:06:12;;;;;;;9.80;8.73;;;19.00;88.10;;;;;;5109705;28;20467;-45
2022/06/26 02:08:38;;;;;;;10.43;9.38;;;18.90;88.20;;;;;;5116551;27;20028;-45
2022/06/26 02:13:49;;;;;;;9.23;8.43;;;18.90;88.40;;;;;;5129749;27;20057;-48
2022/06/26 02:16:14;;;;;;;9.70;8.80;;;18.90;88.40;;;;;;5116941;27;20023;-44
2022/06/26 02:18:42;;;;;;;9.35;8.55;;;18.90;88.50;;;;;;5107718;28;20107;-45
2022/06/26 02:21:11;;;;;;;9.98;8.98;;;18.90;88.40;;;;;;5109569;28;20055;-44
2022/06/26 02:23:40;;;;;;;9.38;8.57;;;18.90;88.50;;;;;;5109849;27;20809;-44
2022/06/26 02:26:07;;;;;;;10.60;9.60;;;18.90;88.60;;;;;;5130297;27;20393;-45
2022/06/26 02:28:33;;;;;;;10.32;9.43;;;18.90;88.70;;;;;;5128085;27;20015;-44
2022/06/26 02:30:59;;;;;;;11.23;10.13;;;18.80;88.80;;;;;;5109355;28;20024;-44
2022/06/26 02:33:25;;;;;;;12.13;10.75;;;18.90;88.80;;;;;;5109457;28;20401;-45
2022/06/26 02:35:52;;;;;;;11.45;10.32;;;18.90;88.90;;;;;;5109110;28;20035;-45
2022/06/26 02:38:18;;;;;;;11.13;10.23;;;18.90;89.10;;;;;;5118329;28;20019;-45
2022/06/26 02:40:44;;;;;;;12.38;11.20;;;18.90;89.00;;;;;;5111671;28;20661;-46
2022/06/26 02:43:10;;;;;;;10.48;9.68;;;18.90;89.10;;;;;;5109775;28;20016;-46
2022/06/26 02:45:35;;;;;;;12.45;11.25;;;18.90;89.00;;;;;;5108976;28;20314;-45
2022/06/26 02:48:01;;;;;;;13.20;12.05;;;18.90;88.90;;;;;;5115484;28;20031;-44
2022/06/26 02:50:27;;;;;;;11.70;10.50;;;18.90;89.00;;;;;;5124934;28;20113;-44
2022/06/26 02:52:53;;;;;;;10.95;10.05;;;18.90;89.00;;;;;;5129985;28;20028;-44
2022/06/26 02:55:19;;;;;;;11.75;10.75;;;18.90;89.00;;;;;;5115348;28;20055;-44
2022/06/26 02:57:44;;;;;;;11.98;11.07;;;18.90;89.10;;;;;;5117519;28;20505;-44
2022/06/26 03:00:12;;;;;;;12.77;11.68;;;18.90;89.10;;;;;;5112907;28;20459;-45
2022/06/26 03:02:41;;;;;;;12.02;11.02;;;18.90;89.20;;;;;;5108953;28;20019;-46
2022/06/26 03:05:07;;;;;;;11.43;10.52;;;18.90;89.10;;;;;;5096096;28;20033;-45
2022/06/26 03:07:33;;;;;;;12.13;11.00;;;18.80;89.10;;;;;;5127721;27;20030;-46
2022/06/26 03:09:59;;;;;;;12.70;11.50;;;18.80;89.10;;;;;;5112846;27;20495;-44
2022/06/26 03:12:24;;;;;;;12.35;11.25;;;18.80;89.10;;;;;;5113306;28;20098;-45
2022/06/26 03:14:50;;;;;;;12.45;11.25;;;18.80;89.20;;;;;;5128378;27;20035;-46
2022/06/26 03:17:16;;;;;;;12.52;11.32;;;18.70;89.20;;;;;;5133789;27;20067;-44
2022/06/26 03:19:42;;;;;;;13.95;12.75;;;18.70;89.20;;;;;;5127733;27;20118;-45
2022/06/26 03:22:08;;;;;;;13.13;12.07;;;18.60;89.20;;;;;;5115139;27;20118;-45
2022/06/26 03:24:34;;;;;;;12.65;11.60;;;18.60;89.40;;;;;;5113744;27;20163;-44
2022/06/26 03:27:00;;;;;;;11.98;10.85;;;18.60;89.40;;;;;;5133813;27;20113;-43
2022/06/26 03:29:25;;;;;;;12.65;11.55;;;18.60;89.30;;;;;;5120297;27;20039;-44
2022/06/26 03:31:51;;;;;;;12.10;11.10;;;18.60;89.40;;;;;;5112836;28;20034;-44
2022/06/26 03:34:17;;;;;;;12.18;11.18;;;18.60;89.40;;;;;;5121835;27;20045;-43
2022/06/26 03:36:43;;;;;;;13.45;12.23;;;18.60;89.40;;;;;;5115019;27;20058;-44
2022/06/26 03:39:08;;;;;;;12.52;11.52;;;18.60;89.50;;;;;;5113778;27;20027;-45
2022/06/26 03:41:34;;;;;;;12.35;11.35;;;18.60;89.50;;;;;;5133398;27;20169;-43
2022/06/26 03:44:00;;;;;;;12.98;11.82;;;18.60;89.50;;;;;;5107762;28;20118;-44
2022/06/26 03:46:26;;;;;;;11.95;10.95;;;18.60;89.50;;;;;;5112757;28;20028;-44
2022/06/26 03:48:51;;;;;;;13.05;11.88;;;18.60;89.60;;;;;;5116143;27;20156;-45
2022/06/26 03:51:17;;;;;;;12.88;11.88;;;18.60;89.50;;;;;;5133095;27;20106;-46
2022/06/26 03:53:43;;;;;;;12.73;11.63;;;18.60;89.50;;;;;;5129290;27;20028;-43
2022/06/26 03:56:11;;;;;;;11.23;10.27;;;18.60;89.50;;;;;;5112417;28;20354;-44
2022/06/26 03:58:37;;;;;;;11.32;10.27;;;18.60;89.50;;;;;;5111880;28;20051;-44
2022/06/26 04:01:05;;;;;;;12.20;11.18;;;18.60;89.50;;;;;;5112190;28;20055;-43
2022/06/26 04:03:35;;;;;;;11.55;10.65;;;18.70;89.50;;;;;;5112163;28;20029;-44
2022/06/26 04:06:01;;;;;;;13.00;11.63;;;18.70;89.40;;;;;;5106999;28;20016;-44
2022/06/26 04:08:27;;;;;;;12.52;11.32;;;18.70;89.40;;;;;;5094230;28;20428;-45
2022/06/26 04:10:52;;;;;;;11.20;10.20;;;18.80;89.40;;;;;;5130049;27;20459;-45
2022/06/26 04:13:18;;;;;;;14.82;12.27;;;18.80;89.40;;;;;;5132510;27;20019;-46
2022/06/26 04:15:44;;;;;;;12.05;10.95;;;18.90;89.30;;;;;;5119010;27;20427;-43
2022/06/26 04:18:09;;;;;;;12.52;11.43;;;18.90;89.30;;;;;;5132676;27;20034;-44
2022/06/26 04:20:35;;;;;;;11.32;10.18;;;19.00;89.20;;;;;;5115041;27;20072;-44
2022/06/26 04:23:10;;;;;;;11.95;10.85;;;19.10;89.10;;;;;;5112082;27;20032;-46
2022/06/26 04:25:39;;;;;;;12.57;11.38;;;19.10;88.90;;;;;;5111565;28;20023;-44
2022/06/26 04:28:06;;;;;;;12.90;11.77;;;19.20;88.70;;;;;;5111557;28;20091;-46
2022/06/26 04:30:32;;;;;;;12.23;11.23;;;19.30;88.50;;;;;;5093686;28;20356;-44
2022/06/26 04:32:58;;;;;;;11.70;10.68;;;19.30;88.40;;;;;;5093420;28;20086;-43
2022/06/26 04:35:24;;;;;;;12.65;11.38;;;19.40;88.20;;;;;;5092778;28;20443;-46
2022/06/26 04:37:50;;;;;;;14.57;13.27;;;19.40;87.90;;;;;;5125142;27;20027;-47
2022/06/26 04:40:16;;;;;;;13.07;11.85;;;19.40;87.40;;;;;;5125966;27;20433;-44
2022/06/26 04:42:44;;;;;;;12.80;11.18;;;19.40;87.20;;;;;;5093512;28;20081;-43
2022/06/26 04:45:13;;;;;;;11.82;10.82;;;19.30;86.80;;;;;;5110940;27;20035;-45
2022/06/26 04:47:41;;;;;;;13.52;12.20;;;19.40;86.90;;;;;;5111447;28;20429;-45
2022/06/26 04:50:08;;;;;;;11.60;10.57;;;19.40;86.70;;;;;;5111450;27;20031;-43
2022/06/26 04:52:34;;;;;;;12.73;11.43;;;19.50;86.60;;;;;;5111297;28;20023;-46
2022/06/26 04:55:00;;;;;;;13.20;12.05;;;19.60;86.50;;;;;;5116512;27;20058;-45
2022/06/26 04:57:26;;;;;;;13.30;12.05;;;19.80;86.30;;;;;;5093282;28;20349;-45
2022/06/26 04:59:52;;;;;;;15.82;14.43;;;19.90;86.00;;;;;;5114031;27;20038;-44
2022/06/26 05:02:17;;;;;;;18.27;16.52;;;19.90;85.20;;;;;;5092468;27;20123;-44
2022/06/26 05:04:43;;;;;;;16.63;15.15;;;20.00;84.90;;;;;;5130627;27;20031;-45
2022/06/26 05:07:09;;;;;;;17.73;16.23;;;20.00;84.60;;;;;;5099774;27;20027;-46
2022/06/26 05:09:36;;;;;;;15.80;14.20;;;20.10;84.50;;;;;;5109746;27;20345;-46
2022/06/26 05:12:03;;;;;;;15.65;14.35;;;20.10;84.60;;;;;;5131050;27;20470;-44
2022/06/26 05:14:30;;;;;;;14.40;13.20;;;20.20;84.60;;;;;;5096679;28;20119;-44
2022/06/26 05:16:56;;;;;;;19.42;17.65;;;20.30;84.50;;;;;;5121298;27;20088;-45
2022/06/26 05:19:24;;;;;;;21.55;19.65;;;20.40;84.20;;;;;;5120196;27;20528;-45
2022/06/26 05:21:53;;;;;;;20.02;18.38;;;20.30;84.00;;;;;;5104049;27;20057;-44
2022/06/26 05:24:18;;;;;;;23.15;21.00;;;20.40;84.00;;;;;;5120632;27;20486;-45
2022/06/26 05:26:44;;;;;;;24.95;22.88;;;20.50;83.60;;;;;;5101051;27;20027;-44
2022/06/26 05:29:10;;;;;;;23.52;21.52;;;20.40;83.60;;;;;;5100085;27;20400;-47
2022/06/26 05:31:36;;;;;;;19.88;18.00;;;20.40;83.70;;;;;;5118297;27;20023;-44
2022/06/26 05:34:01;;;;;;;17.85;16.10;;;20.40;83.60;;;;;;5121993;27;20175;-45
2022/06/26 05:36:27;;;;;;;20.63;18.90;;;20.50;83.90;;;;;;5097179;27;20402;-47
2022/06/26 05:38:52;;;;;;;23.63;21.42;;;20.50;83.90;;;;;;5102437;27;20031;-45
2022/06/26 05:41:18;;;;;;;22.23;20.33;;;20.40;83.70;;;;;;5123605;27;20053;-44
2022/06/26 05:43:44;;;;;;;16.33;14.75;;;20.50;84.10;;;;;;5111242;27;20479;-45
2022/06/26 05:46:11;;;;;;;18.15;16.48;;;20.50;83.90;;;;;;5110217;28;20357;-45
2022/06/26 05:48:37;;;;;;;21.25;19.42;;;20.60;83.80;;;;;;5118106;27;20015;-45
2022/06/26 05:51:03;;;;;;;21.67;19.77;;;20.70;83.60;;;;;;5085026;27;20565;-47
2022/06/26 05:53:31;;;;;;;24.75;22.40;;;20.80;83.30;;;;;;5118615;27;20114;-45
2022/06/26 05:55:57;;;;;;;23.15;21.05;;;20.80;83.10;;;;;;5118758;27;20039;-45
2022/06/26 05:58:22;;;;;;;23.13;21.25;;;20.90;83.20;;;;;;5117330;27;20045;-46
2022/06/26 06:00:48;;;;;;;21.42;19.50;;;21.00;83.00;;;;;;5102534;27;20092;-45
2022/06/26 06:03:16;;;;;;;16.27;14.98;;;21.30;83.20;;;;;;5118728;27;20051;-46
2022/06/26 06:05:41;;;;;;;19.00;17.02;;;21.60;82.20;;;;;;5118654;27;20102;-45
2022/06/26 06:08:07;;;;;;;17.55;15.95;;;21.90;79.50;;;;;;5120631;27;20174;-45
2022/06/26 06:10:33;;;;;;;16.20;14.82;;;22.10;79.00;;;;;;5115756;27;20057;-46
2022/06/26 06:12:59;;;;;;;14.50;13.05;;;22.30;78.90;;;;;;5107053;27;20448;-46
2022/06/26 06:15:24;;;;;;;13.02;11.82;;;22.40;77.50;;;;;;5111148;27;20036;-47
2022/06/26 06:17:50;;;;;;;12.82;11.57;;;22.50;76.10;;;;;;5115272;27;20415;-44
2022/06/26 06:20:21;;;;;;;12.70;10.80;;;22.60;76.00;;;;;;5100157;27;20023;-45
2022/06/26 06:23:02;;;;;;;12.23;10.13;;;22.50;76.00;;;;;;5118024;27;20113;-47
2022/06/26 06:25:28;;;;;;;12.43;11.07;;;22.20;76.40;;;;;;5093759;27;20028;-46
2022/06/26 06:27:56;;;;;;;10.75;9.73;;;22.00;77.60;;;;;;5111451;27;20037;-45
2022/06/26 06:30:22;;;;;;;11.00;9.80;;;21.90;78.10;;;;;;5118039;27;20019;-46
2022/06/26 06:32:48;;;;;;;15.32;10.27;;;21.60;78.70;;;;;;5096656;28;20036;-45
2022/06/26 06:35:14;;;;;;;9.23;6.70;;;21.50;79.20;;;;;;5110669;28;20027;-45
2022/06/26 06:37:41;;;;;;;11.02;7.88;;;21.30;80.70;;;;;;5112580;28;20435;-46
2022/06/26 06:40:08;;;;;;;9.90;7.43;;;21.10;80.70;;;;;;5120856;28;20044;-46
2022/06/26 06:42:34;;;;;;;7.80;6.15;;;21.00;80.80;;;;;;5122380;27;20032;-45
2022/06/26 06:45:03;;;;;;;7.82;6.63;;;20.90;80.90;;;;;;5095956;28;20481;-45
2022/06/26 06:47:29;;;;;;;8.68;6.35;;;20.90;80.40;;;;;;5097524;28;20038;-47
2022/06/26 06:49:55;;;;;;;7.82;4.97;;;20.90;80.50;;;;;;5084066;27;20028;-46
2022/06/26 06:52:20;;;;;;;9.55;7.38;;;20.90;80.70;;;;;;5121615;27;20020;-46
2022/06/26 06:54:46;;;;;;;9.80;6.22;;;20.80;80.80;;;;;;5119731;27;20058;-44
2022/06/26 06:57:12;;;;;;;10.77;6.65;;;20.70;81.30;;;;;;5114366;27;20088;-45
2022/06/26 06:59:37;;;;;;;7.40;5.85;;;20.70;81.80;;;;;;5130565;27;20056;-45
2022/06/26 07:02:03;;;;;;;6.22;5.45;;;20.60;81.20;;;;;;5098310;27;20023;-45
2022/06/26 07:04:29;;;;;;;8.98;4.28;;;20.50;81.70;;;;;;5127294;27;20055;-47
2022/06/26 07:06:55;;;;;;;4.97;3.22;;;20.50;80.90;;;;;;5122800;27;20026;-45
2022/06/26 07:09:23;;;;;;;3.22;2.10;;;20.50;80.80;;;;;;5101275;27;20330;-45
2022/06/26 07:11:49;;;;;;;3.63;1.50;;;20.50;80.20;;;;;;5108485;27;20091;-45
2022/06/26 07:14:15;;;;;;;3.28;1.10;;;20.40;79.40;;;;;;5105290;27;20403;-45
2022/06/26 07:16:40;;;;;;;4.80;1.58;;;20.40;78.70;;;;;;5117510;27;20087;-45
2022/06/26 07:19:06;;;;;;;2.72;1.00;;;20.50;78.60;;;;;;5120094;27;20032;-45
2022/06/26 07:21:32;;;;;;;3.17;1.02;;;20.70;78.10;;;;;;5104691;27;20023;-44
2022/06/26 07:23:57;;;;;;;2.85;0.95;;;20.70;77.60;;;;;;5120088;27;20034;-44
2022/06/26 07:26:23;;;;;;;3.15;1.30;;;20.80;78.10;;;;;;5121210;27;20020;-44
2022/06/26 07:28:49;;;;;;;4.50;1.63;;;20.90;77.90;;;;;;5129333;27;20030;-45
2022/06/26 07:31:15;;;;;;;2.67;1.02;;;21.20;76.30;;;;;;5114687;27;20108;-46
2022/06/26 07:36:25;;;;;;;2.33;0.90;;;22.50;71.30;;;;;;5122088;27;20087;-45
2022/06/26 07:38:54;;;;;;;2.25;0.85;;;23.30;69.20;;;;;;5121580;27;20452;-47
2022/06/26 07:41:20;;;;;;;3.00;1.30;;;23.60;67.50;;;;;;5133085;27;20119;-45
2022/06/26 07:43:46;;;;;;;1.88;0.73;;;24.10;65.90;;;;;;5108897;28;20356;-45
2022/06/26 07:46:12;;;;;;;1.85;0.80;;;24.70;65.90;;;;;;5130479;27;20031;-48
2022/06/26 07:48:38;;;;;;;1.67;0.77;;;25.20;63.60;;;;;;5094504;28;20035;-46
2022/06/26 07:51:06;;;;;;;2.38;0.77;;;25.10;62.40;;;;;;5119649;27;20432;-46
2022/06/26 07:53:32;;;;;;;3.63;0.70;;;25.40;62.30;;;;;;5118633;27;20023;-45
2022/06/26 07:56:00;;;;;;;1.95;0.73;;;25.80;61.60;;;;;;5093824;28;20070;-45
2022/06/26 07:58:28;;;;;;;2.13;0.90;;;26.10;60.80;;;;;;5112442;27;20031;-45
2022/06/26 08:00:54;;;;;;;1.50;0.88;;;26.50;59.40;;;;;;5121581;27;20515;-47
2022/06/26 08:03:19;;;;;;;3.20;0.80;;;26.60;58.30;;;;;;5117548;27;20020;-48
2022/06/26 08:05:46;;;;;;;4.95;1.27;;;27.10;56.50;;;;;;5121220;27;20035;-45
2022/06/26 08:08:12;;;;;;;1.90;0.73;;;27.20;57.80;;;;;;5095501;27;20016;-44
2022/06/26 08:10:39;;;;;;;2.15;0.80;;;27.50;57.70;;;;;;5121341;27;20027;-45
2022/06/26 08:13:06;;;;;;;2.05;0.50;;;27.70;55.50;;;;;;5118617;27;20088;-49
2022/06/26 08:15:32;;;;;;;2.10;0.77;;;27.90;54.70;;;;;;5119590;27;20019;-44
2022/06/26 08:17:58;;;;;;;1.20;0.63;;;27.80;54.30;;;;;;5097301;28;20489;-44
2022/06/26 08:20:24;;;;;;;1.52;0.70;;;27.50;55.80;;;;;;5128532;27;20035;-47
2022/06/26 08:22:50;;;;;;;3.55;0.80;;;27.90;54.90;;;;;;5095479;27;20088;-45
2022/06/26 08:25:15;;;;;;;1.42;0.65;;;27.50;55.30;;;;;;5111431;28;20050;-46
2022/06/26 08:27:43;;;;;;;4.35;0.77;;;27.70;55.40;;;;;;5126759;27;20031;-44
2022/06/26 08:30:09;;;;;;;1.83;0.73;;;27.30;55.20;;;;;;5130853;27;20027;-45
2022/06/26 08:32:36;;;;;;;1.88;0.65;;;26.60;56.90;;;;;;5131763;27;20026;-45
2022/06/26 08:35:04;;;;;;;1.40;0.85;;;26.80;58.60;;;;;;5095099;28;20027;-45
2022/06/26 08:37:29;;;;;;;1.20;0.70;;;26.90;57.60;;;;;;5102694;28;20122;-46
2022/06/26 08:39:55;;;;;;;1.55;0.70;;;26.90;57.30;;;;;;5111320;28;20099;-47
2022/06/26 08:42:22;;;;;;;1.02;0.63;;;27.10;56.90;;;;;;5125495;27;20424;-45
2022/06/26 08:44:47;;;;;;;4.55;0.90;;;26.80;57.80;;;;;;5113462;27;20031;-45
2022/06/26 08:47:16;;;;;;;2.03;0.93;;;26.40;57.80;;;;;;5106172;28;20165;-45
2022/06/26 08:49:42;;;;;;;3.10;0.90;;;26.10;60.10;;;;;;5110695;28;20115;-48
2022/06/26 08:52:15;;;;;;;3.03;0.90;;;25.60;60.90;;;;;;5122347;27;20114;-45
2022/06/26 08:54:41;;;;;;;2.58;1.23;;;25.00;61.60;;;;;;5112943;27;20058;-45
2022/06/26 08:57:09;;;;;;;2.33;1.00;;;24.80;63.40;;;;;;5118428;27;20372;-45
2022/06/26 08:59:35;;;;;;;1.60;0.82;;;24.40;64.00;;;;;;5110494;28;20310;-46
2022/06/26 09:02:00;;;;;;;2.55;0.90;;;24.30;65.90;;;;;;5110264;27;20050;-45
2022/06/26 09:04:26;;;;;;;3.10;1.20;;;23.90;66.10;;;;;;5118346;27;20034;-46
2022/06/26 09:06:51;;;;;;;2.65;1.30;;;23.70;66.70;;;;;;5103703;27;20031;-45
2022/06/26 09:09:23;;;;;;;2.22;1.25;;;23.70;66.80;;;;;;5128503;27;20027;-45
2022/06/26 09:11:56;;;;;;;3.13;1.17;;;23.50;67.50;;;;;;5110324;28;20130;-48
2022/06/26 09:14:24;;;;;;;4.03;1.10;;;23.30;68.70;;;;;;5091756;28;20101;-46
2022/06/26 09:16:51;;;;;;;4.50;1.40;;;23.40;68.60;;;;;;5109308;27;20495;-44
2022/06/26 09:19:24;;;;;;;3.75;1.20;;;23.30;69.40;;;;;;5109871;27;20359;-47
2022/06/26 09:21:51;;;;;;;2.45;1.42;;;23.20;69.60;;;;;;5092032;28;20444;-44
2022/06/26 09:24:19;;;;;;;3.63;1.27;;;23.20;68.90;;;;;;5109715;27;20031;-46
2022/06/26 09:26:59;;;;;;;3.67;1.38;;;23.30;68.90;;;;;;5092174;28;20349;-45
2022/06/26 09:29:25;;;;;;;4.00;0.88;;;23.70;68.50;;;;;;5110062;27;20028;-48
2022/06/26 09:31:51;;;;;;;2.75;1.38;;;23.90;67.40;;;;;;5110166;27;20432;-46
2022/06/26 09:34:25;;;;;;;2.88;1.70;;;23.90;66.90;;;;;;5092286;28;20035;-46
2022/06/26 09:37:02;;;;;;;2.88;1.20;;;24.00;66.40;;;;;;5092194;28;20089;-46
2022/06/26 09:39:32;;;;;;;3.00;1.27;;;24.10;64.40;;;;;;5109977;28;20106;-46
2022/06/26 09:42:22;;;;;;;2.03;1.02;;;24.00;65.10;;;;;;5109586;28;20045;-46
2022/06/26 09:44:54;;;;;;;2.60;1.25;;;24.10;65.60;;;;;;5109836;27;20050;-46
2022/06/26 09:47:27;;;;;;;2.03;1.30;;;24.10;64.60;;;;;;5092097;27;20366;-46
2022/06/26 09:49:55;;;;;;;3.20;1.80;;;23.90;66.00;;;;;;5091512;28;20027;-45
2022/06/26 09:52:22;;;;;;;4.25;1.50;;;23.80;66.50;;;;;;5110260;27;20337;-46
2022/06/26 09:54:48;;;;;;;2.70;1.58;;;24.00;66.80;;;;;;5116789;27;20060;-47
2022/06/26 09:57:14;;;;;;;4.50;1.63;;;24.00;66.80;;;;;;5113238;27;20052;-44
2022/06/26 09:59:41;;;;;;;3.08;2.35;;;23.80;66.40;;;;;;5109413;27;20019;-45
2022/06/26 10:07:47;;;;;;;3.25;1.70;;;24.60;65.30;;;;;;5108649;28;20510;-45
2022/06/26 10:10:13;;;;;;;3.05;1.67;;;25.20;63.60;;;;;;5102804;27;20019;-46
2022/06/26 10:12:40;;;;;;;2.58;1.50;;;25.20;61.60;;;;;;5118157;27;20429;-45
2022/06/26 10:15:07;;;;;;;4.70;1.80;;;25.00;61.90;;;;;;5109189;27;20031;-46
2022/06/26 10:18:13;;;;;;;2.40;1.80;;;24.70;62.00;;;;;;5112148;27;20023;-46
2022/06/26 10:20:41;;;;;;;3.25;1.90;;;24.40;63.70;;;;;;5100077;28;20107;-45
2022/06/26 10:23:07;;;;;;;3.47;1.92;;;23.80;64.60;;;;;;5074919;28;20119;-46
2022/06/26 10:25:34;;;;;;;3.53;2.55;;;23.50;66.20;;;;;;5108766;28;20484;-47
2022/06/26 10:28:02;;;;;;;4.05;2.63;;;23.20;67.50;;;;;;5109258;28;20020;-45
2022/06/26 10:30:30;;;;;;;3.30;1.90;;;23.10;68.10;;;;;;5108885;28;20027;-46
2022/06/26 10:33:19;;;;;;;3.75;2.15;;;23.00;68.90;;;;;;5091433;28;20381;-45
2022/06/26 10:35:54;;;;;;;5.22;3.00;;;22.90;68.50;;;;;;5109288;28;20028;-47
2022/06/26 10:38:28;;;;;;;5.18;3.70;;;22.90;69.10;;;;;;5118124;28;20039;-45
2022/06/26 10:44:07;;;;;;;5.00;3.45;;;23.00;69.80;;;;;;5084583;28;20067;-46
2022/06/26 10:46:36;;;;;;;;;;;23.40;68.70;;;;;;5109561;28;20524;-46
2022/06/26 10:49:06;;;;;;;5.45;2.67;;;23.40;68.30;;;;;;5108980;28;19918;-44
2022/06/26 10:51:32;;;;;;;5.00;3.17;;;23.20;68.40;;;;;;5109009;28;20051;-45
2022/06/26 10:53:58;;;;;;;5.22;3.03;;;23.10;68.00;;;;;;5090512;28;20071;-45
2022/06/26 10:56:26;;;;;;;4.50;2.65;;;23.30;66.20;;;;;;5109041;28;20036;-45
2022/06/26 10:58:59;;;;;;;4.78;2.88;;;23.40;66.50;;;;;;5094165;28;20027;-45
2022/06/26 11:01:26;;;;;;;5.15;2.95;;;23.40;65.90;;;;;;5129323;28;20030;-46
2022/06/26 11:03:52;;;;;;;3.58;2.03;;;23.10;65.70;;;;;;5111876;28;20020;-44
2022/06/26 11:06:18;;;;;;;5.80;2.80;;;22.90;66.20;;;;;;5108902;28;20085;-45
2022/06/26 11:08:50;;;;;;;5.47;2.90;;;22.70;67.20;;;;;;5107437;28;20030;-47
2022/06/26 11:11:19;;;;;;;4.50;2.80;;;22.80;69.10;;;;;;5090500;28;20387;-44
2022/06/26 11:13:55;;;;;;;;;;;23.00;68.10;;;;;;5109726;28;20034;-44
2022/06/26 11:16:41;;;;;;;5.43;2.90;;;23.40;67.40;;;;;;5109062;28;19908;-47
2022/06/26 11:19:28;;;;;;;6.18;2.92;;;23.40;67.00;;;;;;5108650;28;20024;-45
2022/06/26 11:22:12;;;;;;;8.25;3.65;;;23.80;66.00;;;;;;5124227;28;20042;-46
2022/06/26 11:24:51;;;;;;;4.85;3.45;;;24.20;66.30;;;;;;5111261;28;20039;-46
2022/06/26 11:27:21;;;;;;;7.38;3.80;;;24.50;65.30;;;;;;5108605;28;20456;-44
2022/06/26 11:29:47;;;;;;;4.47;2.70;;;25.10;62.90;;;;;;5111105;28;20492;-45
2022/06/26 11:32:15;;;;;;;5.32;1.95;;;25.20;63.20;;;;;;5112017;28;20047;-45
2022/06/26 11:34:58;;;;;;;4.93;2.13;;;25.60;60.80;;;;;;5112596;28;20028;-45
2022/06/26 11:37:38;;;;;;;4.00;2.17;;;25.80;60.00;;;;;;5111539;27;20376;-46
2022/06/26 11:40:13;;;;;;;4.13;2.40;;;26.10;57.70;;;;;;5104141;27;20121;-46
2022/06/26 11:42:39;;;;;;;4.68;1.98;;;25.60;60.70;;;;;;5116736;27;20199;-46
2022/06/26 11:45:06;;;;;;;4.53;1.90;;;25.50;59.80;;;;;;5111975;27;20019;-50
2022/06/26 11:47:34;;;;;;;5.85;1.73;;;25.80;60.40;;;;;;5121388;27;20102;-47
2022/06/26 11:50:02;;;;;;;7.63;1.88;;;26.00;60.20;;;;;;5123431;27;20336;-45
2022/06/26 11:52:28;;;;;;;4.70;2.20;;;26.60;58.70;;;;;;5112356;28;20114;-45
2022/06/26 11:55:01;;;;;;;4.43;1.90;;;26.60;57.00;;;;;;5111416;28;20140;-46
2022/06/26 11:57:27;;;;;;;4.88;2.90;;;26.90;56.50;;;;;;5111971;28;20020;-48
2022/06/26 11:59:53;;;;;;;4.30;2.28;;;26.60;57.70;;;;;;5093397;28;20036;-45
2022/06/26 12:02:28;;;;;;;3.53;1.95;;;26.40;59.60;;;;;;5093888;28;20032;-45
2022/06/26 12:04:59;;;;;;;2.85;1.67;;;26.80;59.10;;;;;;5111372;27;20094;-45
2022/06/26 12:07:26;;;;;;;4.45;2.58;;;27.10;57.20;;;;;;5093782;28;20028;-45
2022/06/26 12:09:51;;;;;;;4.05;2.15;;;26.80;56.10;;;;;;5097667;27;20038;-45
2022/06/26 12:12:17;;;;;;;3.95;2.25;;;26.70;57.10;;;;;;5097614;28;20028;-47
2022/06/26 12:14:53;;;;;;;5.25;1.75;;;26.40;59.20;;;;;;5104108;27;20063;-47
2022/06/26 12:17:24;;;;;;;3.47;2.03;;;26.30;58.30;;;;;;5132279;27;20050;-45
2022/06/26 12:19:50;;;;;;;5.25;2.47;;;26.20;57.70;;;;;;5130611;27;20042;-45
2022/06/26 12:22:31;;;;;;;4.50;2.15;;;25.70;59.10;;;;;;5126717;27;20026;-45
2022/06/26 12:24:57;;;;;;;5.05;2.00;;;25.40;58.90;;;;;;5118456;27;20016;-47
2022/06/26 12:27:34;;;;;;;4.53;2.40;;;25.40;60.80;;;;;;5096032;27;20030;-45
2022/06/26 12:30:00;;;;;;;6.68;2.28;;;25.70;59.60;;;;;;5131556;27;20019;-48
2022/06/26 12:32:26;;;;;;;4.20;2.10;;;25.40;60.70;;;;;;5126203;27;20031;-46
2022/06/26 12:34:52;;;;;;;7.18;2.60;;;25.20;61.00;;;;;;5131602;27;20031;-46
2022/06/26 12:37:17;;;;;;;3.78;2.10;;;25.40;60.20;;;;;;5129743;27;20035;-45
2022/06/26 12:39:43;;;;;;;6.10;1.88;;;25.40;59.70;;;;;;5124596;27;20106;-46
2022/06/26 12:42:11;;;;;;;4.18;1.95;;;25.50;60.60;;;;;;5125919;27;20106;-45
2022/06/26 12:44:39;;;;;;;5.15;2.13;;;25.60;62.90;;;;;;5119639;27;20027;-46
2022/06/26 12:47:04;;;;;;;4.45;1.55;;;25.50;60.40;;;;;;5119849;27;20109;-46
2022/06/26 12:49:30;;;;;;;3.90;1.80;;;25.50;61.20;;;;;;5121154;27;20423;-45
2022/06/26 12:51:56;;;;;;;6.30;1.92;;;25.30;62.70;;;;;;5120875;27;20023;-45
2022/06/26 12:54:21;;;;;;;4.38;1.40;;;25.20;61.60;;;;;;5097739;27;20100;-46
2022/06/26 12:56:47;;;;;;;7.93;1.55;;;25.00;63.60;;;;;;5103699;27;20057;-46